Time;durP1;ratioP1;P1;durP2;ratioP2;P2;SDS_P1;SDS_P2;PMS_P1;PMS_P2;Temp;Humidity;BMP_temperature;BMP_pressure;BME280_temperature;BME280_humidity;BME280_pressure;Samples;Min_cycle;Max_cycle;Signal;HPM_P1;HPM_P2
2023/01/02 00:00:26;;;;;;;13.43;4.23;;;;;;;;;;5000274;28;20371;-55
2023/01/02 00:02:52;;;;;;;7.27;3.80;;;;;;;;;;4986706;28;20660;-55
2023/01/02 00:05:18;;;;;;;5.90;3.57;;;;;;;;;;4990746;28;20175;-55
2023/01/02 00:07:44;;;;;;;7.47;3.83;;;;;;;;;;4998475;28;20187;-55
2023/01/02 00:10:13;;;;;;;6.50;4.37;;;;;;;;;;4998569;28;20732;-55
2023/01/02 00:12:40;;;;;;;7.23;5.00;;;;;;;;;;5007158;28;20183;-56
2023/01/02 00:15:06;;;;;;;5.23;3.80;;;;;;;;;;5009493;28;20166;-55
2023/01/02 00:17:32;;;;;;;10.90;4.40;;;;;;;;;;5002084;28;20210;-55
2023/01/02 00:19:58;;;;;;;8.30;3.77;;;;;;;;;;5000867;28;20201;-55
2023/01/02 00:22:24;;;;;;;8.53;3.73;;;;;;;;;;5008625;28;20198;-56
2023/01/02 00:24:50;;;;;;;7.53;4.07;;;;;;;;;;5001216;28;20549;-56
2023/01/02 00:27:17;;;;;;;7.23;4.23;;;;;;;;;;5009247;28;20201;-55
2023/01/02 00:29:43;;;;;;;7.90;5.00;;;;;;;;;;5008933;28;20182;-55
2023/01/02 00:32:09;;;;;;;4.63;3.73;;;;;;;;;;5007753;28;20185;-56
2023/01/02 00:34:35;;;;;;;6.17;4.03;;;;;;;;;;5008526;28;20693;-55
2023/01/02 00:37:01;;;;;;;9.60;4.00;;;;;;;;;;4994377;28;20289;-55
2023/01/02 00:39:27;;;;;;;4.37;3.40;;;;;;;;;;4997202;28;20175;-55
2023/01/02 00:41:54;;;;;;;5.40;4.30;;;;;;;;;;4997652;28;20636;-55
2023/01/02 00:44:20;;;;;;;7.47;4.80;;;;;;;;;;5004060;28;20241;-55
2023/01/02 00:46:46;;;;;;;7.67;4.10;;;;;;;;;;4995057;28;20183;-55
2023/01/02 00:49:12;;;;;;;6.63;4.00;;;;;;;;;;5000153;28;20297;-55
2023/01/02 00:51:38;;;;;;;9.80;4.23;;;;;;;;;;5008756;28;20190;-55
2023/01/02 00:54:04;;;;;;;6.23;3.60;;;;;;;;;;5000116;28;20185;-55
2023/01/02 00:56:30;;;;;;;6.30;4.33;;;;;;;;;;5006544;28;20802;-55
2023/01/02 00:58:57;;;;;;;7.03;4.00;;;;;;;;;;5007070;28;20233;-55
2023/01/02 01:01:23;;;;;;;6.13;4.00;;;;;;;;;;5006246;28;20167;-55
2023/01/02 01:03:49;;;;;;;7.63;4.00;;;;;;;;;;5006962;28;20189;-55
2023/01/02 01:06:15;;;;;;;6.00;3.57;;;;;;;;;;5001397;28;20182;-55
2023/01/02 01:08:41;;;;;;;6.70;4.00;;;;;;;;;;5002907;28;20187;-55
2023/01/02 01:11:11;;;;;;;7.37;3.63;;;;;;;;;;5004662;28;20183;-55
2023/01/02 01:13:40;;;;;;;11.10;4.13;;;;;;;;;;5003615;28;20190;-55
2023/01/02 01:16:10;;;;;;;5.70;3.47;;;;;;;;;;5000611;28;20572;-55
2023/01/02 01:18:37;;;;;;;9.47;3.97;;;;;;;;;;5004582;28;20863;-56
2023/01/02 01:21:14;;;;;;;5.23;3.90;;;;;;;;;;4985431;28;20277;-55
2023/01/02 01:23:40;;;;;;;6.10;4.50;;;;;;;;;;5004671;28;20256;-55
2023/01/02 01:26:08;;;;;;;8.20;3.87;;;;;;;;;;5007369;28;20633;-55
2023/01/02 01:28:40;;;;;;;6.97;3.80;;;;;;;;;;5004936;28;20186;-55
2023/01/02 01:31:07;;;;;;;5.57;4.07;;;;;;;;;;5002043;28;20183;-55
2023/01/02 01:33:34;;;;;;;4.97;3.80;;;;;;;;;;4999582;28;20594;-55
2023/01/02 01:36:00;;;;;;;4.20;3.80;;;;;;;;;;4988961;28;20238;-55
2023/01/02 01:38:26;;;;;;;9.10;3.97;;;;;;;;;;5006239;28;20175;-55
2023/01/02 01:40:52;;;;;;;5.23;3.80;;;;;;;;;;4996986;28;20290;-55
2023/01/02 01:43:41;;;;;;;5.97;4.20;;;;;;;;;;4997914;28;20681;-55
2023/01/02 01:46:11;;;;;;;5.33;3.73;;;;;;;;;;4997730;28;20235;-55
2023/01/02 01:48:37;;;;;;;6.70;3.80;;;;;;;;;;5000288;28;20202;-55
2023/01/02 01:51:03;;;;;;;6.80;4.30;;;;;;;;;;4999617;28;20690;-55
2023/01/02 01:53:30;;;;;;;6.77;3.37;;;;;;;;;;5003107;28;20270;-55
2023/01/02 01:55:59;;;;;;;6.90;4.00;;;;;;;;;;5003082;28;20814;-55
2023/01/02 01:58:31;;;;;;;7.53;3.63;;;;;;;;;;4983001;28;20172;-55
2023/01/02 02:00:57;;;;;;;5.30;3.87;;;;;;;;;;5004907;28;20185;-55
2023/01/02 02:03:26;;;;;;;5.97;4.03;;;;;;;;;;5008126;28;20255;-55
2023/01/02 02:05:52;;;;;;;10.17;4.23;;;;;;;;;;5013422;28;20622;-55
2023/01/02 02:08:26;;;;;;;4.35;3.95;;;;;;;;;;5012834;28;20417;-55
2023/01/02 02:10:52;;;;;;;9.70;4.30;;;;;;;;;;4991881;28;20514;-55
2023/01/02 02:13:18;;;;;;;7.13;4.30;;;;;;;;;;4991798;28;20196;-55
2023/01/02 02:16:03;;;;;;;5.10;3.67;;;;;;;;;;5009693;28;20200;-55
2023/01/02 02:18:48;;;;;;;6.80;4.20;;;;;;;;;;5010556;28;20228;-55
2023/01/02 02:21:19;;;;;;;6.00;3.70;;;;;;;;;;5012248;28;20170;-55
2023/01/02 02:24:04;;;;;;;6.17;3.77;;;;;;;;;;4992399;28;20209;-55
2023/01/02 02:26:40;;;;;;;6.67;3.50;;;;;;;;;;5008940;28;20239;-55
2023/01/02 02:29:09;;;;;;;7.10;4.00;;;;;;;;;;5004802;28;20274;-55
2023/01/02 02:31:58;;;;;;;8.83;4.17;;;;;;;;;;5011577;28;20669;-55
2023/01/02 02:34:27;;;;;;;6.47;4.03;;;;;;;;;;5008418;28;20217;-55
2023/01/02 02:37:15;;;;;;;6.47;4.10;;;;;;;;;;5012934;28;20206;-55
2023/01/02 02:40:00;;;;;;;6.33;4.33;;;;;;;;;;5004060;28;20175;-55
2023/01/02 02:42:43;;;;;;;10.03;4.00;;;;;;;;;;4988447;28;20229;-55
2023/01/02 02:45:21;;;;;;;5.77;3.97;;;;;;;;;;5012285;28;20189;-55
2023/01/02 02:48:06;;;;;;;10.33;4.77;;;;;;;;;;5004798;28;20657;-55
2023/01/02 02:50:42;;;;;;;6.00;4.07;;;;;;;;;;4989696;28;20214;-55
2023/01/02 02:53:10;;;;;;;6.50;4.00;;;;;;;;;;5010701;28;20174;-55
2023/01/02 02:55:48;;;;;;;6.90;4.13;;;;;;;;;;4995196;28;20207;-55
2023/01/02 02:58:14;;;;;;;9.00;4.50;;;;;;;;;;5007588;28;20189;-55
2023/01/02 03:00:40;;;;;;;9.33;4.40;;;;;;;;;;4998910;28;20178;-55
2023/01/02 03:03:23;;;;;;;5.97;4.57;;;;;;;;;;5004630;28;20175;-55
2023/01/02 03:06:09;;;;;;;4.33;3.80;;;;;;;;;;5008502;28;20178;-55
2023/01/02 03:08:41;;;;;;;5.47;4.43;;;;;;;;;;5008967;28;20194;-55
2023/01/02 03:11:08;;;;;;;3.87;3.37;;;;;;;;;;5003160;28;20200;-55
2023/01/02 03:13:52;;;;;;;9.03;3.80;;;;;;;;;;5002729;28;20571;-55
2023/01/02 03:16:18;;;;;;;7.47;3.90;;;;;;;;;;5008702;28;20285;-55
2023/01/02 03:19:23;;;;;;;6.10;4.47;;;;;;;;;;5009032;28;20198;-55
2023/01/02 03:21:55;;;;;;;6.43;3.83;;;;;;;;;;4947904;29;20780;-55
2023/01/02 03:24:22;;;;;;;6.17;4.23;;;;;;;;;;4947199;29;20188;-55
2023/01/02 03:26:50;;;;;;;6.53;4.17;;;;;;;;;;4988912;28;20194;-55
2023/01/02 03:29:18;;;;;;;3.83;3.40;;;;;;;;;;5005322;28;20176;-55
2023/01/02 03:31:47;;;;;;;7.57;4.30;;;;;;;;;;5004613;28;20179;-55
2023/01/02 03:34:14;;;;;;;4.70;3.60;;;;;;;;;;5006716;28;20540;-55
2023/01/02 03:36:41;;;;;;;6.13;4.57;;;;;;;;;;4977135;28;20205;-55
2023/01/02 03:39:11;;;;;;;5.00;3.97;;;;;;;;;;5009936;28;20244;-55
2023/01/02 03:41:41;;;;;;;7.67;4.37;;;;;;;;;;5010238;28;20202;-55
2023/01/02 03:44:08;;;;;;;6.83;4.30;;;;;;;;;;5014190;28;20178;-55
2023/01/02 03:46:38;;;;;;;8.77;5.00;;;;;;;;;;5009321;28;20182;-55
2023/01/02 03:49:16;;;;;;;7.73;4.03;;;;;;;;;;5009631;28;20270;-55
2023/01/02 03:55:08;;;;;;;7.40;4.17;;;;;;;;;;5001410;28;20165;-55
2023/01/02 03:57:53;;;;;;;9.40;4.00;;;;;;;;;;5008018;28;20217;-55
2023/01/02 04:00:20;;;;;;;7.00;3.80;;;;;;;;;;5002665;28;20309;-55
2023/01/02 04:02:59;;;;;;;6.67;4.40;;;;;;;;;;5001382;28;20179;-55
2023/01/02 04:05:35;;;;;;;6.67;4.00;;;;;;;;;;5001258;28;20430;-55
2023/01/02 04:08:04;;;;;;;5.67;3.87;;;;;;;;;;5004358;28;20178;-55
2023/01/02 04:10:31;;;;;;;8.17;4.73;;;;;;;;;;5006339;28;20190;-54
2023/01/02 04:13:02;;;;;;;5.27;3.87;;;;;;;;;;5008186;28;20179;-55
2023/01/02 04:15:31;;;;;;;6.57;4.33;;;;;;;;;;4995965;28;20568;-55
2023/01/02 04:18:00;;;;;;;8.43;4.27;;;;;;;;;;4994547;28;20195;-55
2023/01/02 04:20:28;;;;;;;5.10;4.10;;;;;;;;;;4997645;28;20175;-55
2023/01/02 04:22:57;;;;;;;4.33;3.90;;;;;;;;;;5004846;28;20178;-55
2023/01/02 04:25:25;;;;;;;7.40;3.77;;;;;;;;;;5007526;28;20213;-55
2023/01/02 04:27:57;;;;;;;4.63;3.83;;;;;;;;;;5005861;28;20323;-55
2023/01/02 04:30:23;;;;;;;6.80;3.97;;;;;;;;;;5000388;28;20322;-55
2023/01/02 04:32:49;;;;;;;5.97;3.77;;;;;;;;;;5000025;28;20183;-55
2023/01/02 04:35:23;;;;;;;9.97;4.00;;;;;;;;;;5005034;28;20182;-55
2023/01/02 04:37:49;;;;;;;6.77;4.30;;;;;;;;;;5003409;28;20228;-55
2023/01/02 04:40:18;;;;;;;7.13;5.27;;;;;;;;;;5002878;28;20250;-55
2023/01/02 04:42:44;;;;;;;6.53;3.80;;;;;;;;;;5004643;28;20261;-55
2023/01/02 04:45:10;;;;;;;6.60;4.67;;;;;;;;;;5001122;28;20270;-55
2023/01/02 04:47:37;;;;;;;5.30;3.80;;;;;;;;;;5004115;28;20186;-55
2023/01/02 04:50:04;;;;;;;6.60;4.10;;;;;;;;;;5005376;28;20248;-55
2023/01/02 04:52:30;;;;;;;8.90;4.20;;;;;;;;;;5001026;28;20281;-55
2023/01/02 04:54:56;;;;;;;7.63;3.63;;;;;;;;;;5006339;28;20183;-55
2023/01/02 04:57:22;;;;;;;5.63;3.23;;;;;;;;;;5007319;28;20276;-55
2023/01/02 04:59:48;;;;;;;6.90;4.43;;;;;;;;;;5000355;28;20566;-55
2023/01/02 05:02:14;;;;;;;6.03;5.50;;;;;;;;;;4980832;28;20210;-55
2023/01/02 05:04:40;;;;;;;7.67;3.60;;;;;;;;;;5008266;28;20289;-55
2023/01/02 05:07:06;;;;;;;4.77;3.30;;;;;;;;;;5000558;28;20462;-55
2023/01/02 05:09:32;;;;;;;9.87;4.47;;;;;;;;;;5000344;28;20712;-55
2023/01/02 05:11:58;;;;;;;7.77;3.90;;;;;;;;;;4998042;28;20642;-55
2023/01/02 05:14:24;;;;;;;4.87;3.50;;;;;;;;;;4997318;28;20232;-55
2023/01/02 05:16:50;;;;;;;5.93;3.90;;;;;;;;;;4984667;28;20677;-55
2023/01/02 05:19:16;;;;;;;4.63;3.93;;;;;;;;;;5006617;28;20167;-55
2023/01/02 05:24:26;;;;;;;4.73;3.30;;;;;;;;;;5006093;28;20182;-55
2023/01/02 05:26:53;;;;;;;5.30;3.80;;;;;;;;;;5006097;28;20224;-55
2023/01/02 05:29:19;;;;;;;5.43;4.17;;;;;;;;;;5004795;28;20195;-55
2023/01/02 05:31:45;;;;;;;7.00;3.53;;;;;;;;;;5004597;28;20194;-55
2023/01/02 05:34:15;;;;;;;6.20;3.50;;;;;;;;;;5003199;28;20191;-55
2023/01/02 05:36:41;;;;;;;5.97;3.80;;;;;;;;;;4995830;28;20206;-55
2023/01/02 05:39:11;;;;;;;3.17;2.93;;;;;;;;;;5006638;28;20813;-56
2023/01/02 05:41:38;;;;;;;4.57;3.60;;;;;;;;;;5005571;28;20647;-55
2023/01/02 05:44:05;;;;;;;6.03;3.93;;;;;;;;;;4998018;28;20186;-56
2023/01/02 05:46:31;;;;;;;3.73;3.30;;;;;;;;;;5006627;28;20190;-55
2023/01/02 05:48:57;;;;;;;6.13;3.10;;;;;;;;;;5006195;28;20638;-55
2023/01/02 05:51:23;;;;;;;8.63;3.80;;;;;;;;;;4999165;28;20222;-56
2023/01/02 05:53:49;;;;;;;6.10;3.13;;;;;;;;;;5005822;28;20193;-55
2023/01/02 05:56:17;;;;;;;9.97;3.70;;;;;;;;;;4996883;28;20752;-55
2023/01/02 05:58:44;;;;;;;4.83;3.60;;;;;;;;;;5006729;28;20173;-55
2023/01/02 06:01:12;;;;;;;4.50;3.67;;;;;;;;;;5002462;28;20605;-55
2023/01/02 06:03:38;;;;;;;8.27;3.37;;;;;;;;;;5002770;28;20207;-55
2023/01/02 06:06:08;;;;;;;5.20;3.70;;;;;;;;;;4996470;28;20242;-56
2023/01/02 06:08:35;;;;;;;6.50;3.47;;;;;;;;;;4988494;28;20186;-56
2023/01/02 06:11:01;;;;;;;4.20;3.47;;;;;;;;;;4997390;28;20664;-55
2023/01/02 06:13:28;;;;;;;4.77;3.87;;;;;;;;;;5005929;28;20609;-56
2023/01/02 06:15:55;;;;;;;5.10;2.80;;;;;;;;;;5004693;28;20669;-55
2023/01/02 06:18:21;;;;;;;4.27;3.13;;;;;;;;;;5001239;28;20210;-56
2023/01/02 06:20:47;;;;;;;4.77;3.20;;;;;;;;;;5005698;28;20175;-56
2023/01/02 06:23:13;;;;;;;5.93;3.53;;;;;;;;;;5003603;28;20265;-55
2023/01/02 06:25:39;;;;;;;6.03;3.43;;;;;;;;;;5005710;28;20193;-55
2023/01/02 06:28:05;;;;;;;3.83;2.90;;;;;;;;;;5002888;28;20175;-55
2023/01/02 06:30:31;;;;;;;4.33;3.37;;;;;;;;;;5004649;28;20189;-55
2023/01/02 06:32:57;;;;;;;3.57;2.83;;;;;;;;;;5001181;28;20178;-55
2023/01/02 06:35:23;;;;;;;4.27;3.13;;;;;;;;;;5005051;28;20174;-55
2023/01/02 06:37:50;;;;;;;5.03;3.13;;;;;;;;;;5002882;28;20787;-55
2023/01/02 06:40:16;;;;;;;7.17;3.53;;;;;;;;;;5007206;28;20174;-55
2023/01/02 06:42:43;;;;;;;3.80;3.13;;;;;;;;;;5006673;28;20174;-55
2023/01/02 06:45:09;;;;;;;7.30;3.23;;;;;;;;;;4996817;28;20199;-55
2023/01/02 06:47:35;;;;;;;6.13;3.33;;;;;;;;;;5009542;28;20201;-55
2023/01/02 06:50:01;;;;;;;4.20;3.20;;;;;;;;;;5012315;28;20230;-55
2023/01/02 06:52:28;;;;;;;5.70;2.80;;;;;;;;;;5002700;28;20177;-56
2023/01/02 06:54:54;;;;;;;3.73;3.00;;;;;;;;;;4991741;28;20692;-56
2023/01/02 06:57:21;;;;;;;3.20;2.90;;;;;;;;;;5008239;28;20665;-56
2023/01/02 06:59:47;;;;;;;4.43;3.50;;;;;;;;;;5009275;28;20201;-56
2023/01/02 07:02:19;;;;;;;4.07;2.43;;;;;;;;;;5005324;28;20183;-55
2023/01/02 07:04:45;;;;;;;3.77;2.73;;;;;;;;;;4998033;28;20171;-56
2023/01/02 07:07:11;;;;;;;6.77;3.20;;;;;;;;;;5004326;28;20603;-56
2023/01/02 07:09:37;;;;;;;4.63;2.67;;;;;;;;;;4996066;28;20175;-55
2023/01/02 07:12:03;;;;;;;3.80;3.00;;;;;;;;;;5006615;28;20187;-56
2023/01/02 07:14:29;;;;;;;4.27;3.20;;;;;;;;;;5006560;28;20191;-56
2023/01/02 07:16:55;;;;;;;3.40;2.77;;;;;;;;;;5004439;28;20280;-56
2023/01/02 07:19:21;;;;;;;5.07;3.43;;;;;;;;;;5000705;28;20187;-56
2023/01/02 07:21:47;;;;;;;4.73;4.33;;;;;;;;;;5001928;28;20237;-56
2023/01/02 07:24:14;;;;;;;4.73;4.30;;;;;;;;;;5008875;28;20189;-56
2023/01/02 07:26:40;;;;;;;3.30;3.00;;;;;;;;;;5008680;28;20654;-56
2023/01/02 07:29:07;;;;;;;3.83;3.10;;;;;;;;;;5002544;28;20175;-56
2023/01/02 07:31:39;;;;;;;5.33;2.60;;;;;;;;;;5000819;28;20193;-56
2023/01/02 07:34:05;;;;;;;4.77;3.33;;;;;;;;;;4986415;28;20775;-56
2023/01/02 07:36:31;;;;;;;5.37;3.37;;;;;;;;;;4992819;28;20262;-55
2023/01/02 07:38:57;;;;;;;5.30;2.87;;;;;;;;;;5002727;28;20178;-55
2023/01/02 07:41:24;;;;;;;4.60;2.90;;;;;;;;;;5011154;28;20179;-55
2023/01/02 07:43:50;;;;;;;4.50;3.30;;;;;;;;;;5007516;28;20189;-56
2023/01/02 07:46:17;;;;;;;4.97;2.83;;;;;;;;;;5005625;28;20626;-56
2023/01/02 07:48:44;;;;;;;3.60;3.03;;;;;;;;;;5005502;28;20661;-56
2023/01/02 07:51:10;;;;;;;4.80;2.83;;;;;;;;;;4999544;28;20215;-55
2023/01/02 07:53:37;;;;;;;3.53;2.77;;;;;;;;;;4997376;28;20179;-55
2023/01/02 07:56:03;;;;;;;5.50;2.90;;;;;;;;;;5001198;28;20257;-56
2023/01/02 07:58:33;;;;;;;3.43;2.47;;;;;;;;;;5007083;28;20667;-55
2023/01/02 08:01:04;;;;;;;4.20;2.93;;;;;;;;;;4999310;28;20249;-56
2023/01/02 08:03:30;;;;;;;4.13;3.20;;;;;;;;;;4978972;28;20175;-56
2023/01/02 08:06:07;;;;;;;4.40;3.00;;;;;;;;;;5005336;28;20261;-56
2023/01/02 08:08:33;;;;;;;4.77;2.47;;;;;;;;;;4994585;28;20534;-55
2023/01/02 08:10:59;;;;;;;3.80;2.50;;;;;;;;;;4983492;28;20191;-55
2023/01/02 08:13:25;;;;;;;4.40;3.27;;;;;;;;;;5008390;28;20178;-55
2023/01/02 08:15:51;;;;;;;4.27;2.77;;;;;;;;;;5007616;28;20764;-55
2023/01/02 08:18:17;;;;;;;6.50;2.70;;;;;;;;;;5008332;28;20194;-55
2023/01/02 08:20:43;;;;;;;3.67;2.50;;;;;;;;;;5008348;28;20644;-55
2023/01/02 08:23:11;;;;;;;4.77;3.20;;;;;;;;;;5008271;28;20198;-56
2023/01/02 08:25:37;;;;;;;3.67;2.50;;;;;;;;;;4994403;28;20217;-55
2023/01/02 08:28:03;;;;;;;3.83;2.83;;;;;;;;;;4985772;28;20211;-55
2023/01/02 08:30:29;;;;;;;2.73;2.53;;;;;;;;;;5005899;28;20677;-56
2023/01/02 08:32:56;;;;;;;3.33;2.63;;;;;;;;;;5005565;28;20183;-56
2023/01/02 08:35:22;;;;;;;2.93;2.63;;;;;;;;;;4999792;28;20186;-56
2023/01/02 08:37:48;;;;;;;4.07;3.23;;;;;;;;;;5006765;28;20232;-55
2023/01/02 08:40:14;;;;;;;3.97;2.80;;;;;;;;;;5007984;28;20171;-55
2023/01/02 08:42:42;;;;;;;3.37;2.53;;;;;;;;;;5005601;28;21210;-55
2023/01/02 08:45:08;;;;;;;3.37;2.77;;;;;;;;;;5008360;28;20540;-55
2023/01/02 08:47:34;;;;;;;3.90;3.07;;;;;;;;;;5005135;28;20189;-55
2023/01/02 08:50:00;;;;;;;5.63;3.20;;;;;;;;;;5002056;28;20261;-55
2023/01/02 08:52:26;;;;;;;2.80;2.60;;;;;;;;;;4995696;28;20178;-55
2023/01/02 08:54:52;;;;;;;3.77;2.80;;;;;;;;;;4997627;28;20234;-55
2023/01/02 08:57:18;;;;;;;2.57;2.37;;;;;;;;;;4995719;28;20203;-55
2023/01/02 08:59:44;;;;;;;4.30;3.07;;;;;;;;;;4994252;28;20188;-55
2023/01/02 09:02:14;;;;;;;2.83;2.63;;;;;;;;;;4996094;28;20178;-55
2023/01/02 09:04:40;;;;;;;2.80;2.60;;;;;;;;;;4993573;28;20650;-55
2023/01/02 09:07:06;;;;;;;4.10;2.30;;;;;;;;;;4988356;28;20178;-55
2023/01/02 09:09:32;;;;;;;2.50;2.30;;;;;;;;;;4990363;28;20857;-55
2023/01/02 09:11:59;;;;;;;3.50;2.10;;;;;;;;;;4996013;28;20178;-55
2023/01/02 09:14:25;;;;;;;2.97;1.87;;;;;;;;;;4996167;28;20206;-55
2023/01/02 09:16:52;;;;;;;3.53;2.17;;;;;;;;;;4997433;28;20733;-55
2023/01/02 09:19:18;;;;;;;1.80;1.70;;;;;;;;;;4992298;28;20532;-55
2023/01/02 09:21:44;;;;;;;2.20;1.80;;;;;;;;;;5003474;28;20603;-55
2023/01/02 09:24:10;;;;;;;2.00;1.60;;;;;;;;;;4992740;28;20175;-55
2023/01/02 09:26:37;;;;;;;2.50;1.90;;;;;;;;;;4991385;28;20191;-55
2023/01/02 09:29:03;;;;;;;1.60;1.50;;;;;;;;;;4989722;28;20183;-55
2023/01/02 09:31:30;;;;;;;1.77;1.67;;;;;;;;;;4994237;28;20638;-55
2023/01/02 09:33:56;;;;;;;1.70;1.60;;;;;;;;;;4990555;28;20200;-55
2023/01/02 09:36:22;;;;;;;2.43;2.23;;;;;;;;;;4995502;28;20625;-55
2023/01/02 09:38:55;;;;;;;2.20;1.60;;;;;;;;;;5000637;28;20665;-55
2023/01/02 09:41:27;;;;;;;3.93;1.90;;;;;;;;;;4985236;28;20825;-56
2023/01/02 09:43:59;;;;;;;3.80;2.03;;;;;;;;;;5000805;28;20191;-55
2023/01/02 09:46:34;;;;;;;2.33;1.77;;;;;;;;;;5002643;28;20179;-55
2023/01/02 09:49:01;;;;;;;1.90;1.70;;;;;;;;;;5001112;28;20189;-55
2023/01/02 09:51:27;;;;;;;3.27;2.00;;;;;;;;;;4995987;28;20222;-55
2023/01/02 09:53:54;;;;;;;2.93;2.63;;;;;;;;;;5000366;28;20183;-55
2023/01/02 09:56:23;;;;;;;2.30;2.10;;;;;;;;;;5002216;28;20216;-55
2023/01/02 09:58:57;;;;;;;2.57;2.40;;;;;;;;;;4998153;28;20178;-56
2023/01/02 10:01:23;;;;;;;2.60;2.40;;;;;;;;;;5007378;28;20265;-55
2023/01/02 10:04:04;;;;;;;2.70;2.50;;;;;;;;;;4987936;28;20668;-55
2023/01/02 10:06:38;;;;;;;2.60;2.40;;;;;;;;;;5003602;28;20587;-55
2023/01/02 10:09:04;;;;;;;2.93;2.73;;;;;;;;;;5005365;28;20225;-55
2023/01/02 10:11:30;;;;;;;4.07;3.33;;;;;;;;;;4998841;28;20945;-55
2023/01/02 10:13:56;;;;;;;3.30;3.00;;;;;;;;;;5000654;28;20171;-55
2023/01/02 10:16:25;;;;;;;3.23;3.03;;;;;;;;;;4988245;28;20729;-55
2023/01/02 10:18:52;;;;;;;3.60;3.30;;;;;;;;;;4995149;28;20196;-55
2023/01/02 10:21:22;;;;;;;3.30;3.10;;;;;;;;;;4973651;28;20167;-55
2023/01/02 10:23:51;;;;;;;3.40;3.17;;;;;;;;;;4998595;28;20186;-55
2023/01/02 10:26:18;;;;;;;3.53;3.23;;;;;;;;;;4998926;28;20253;-56
2023/01/02 10:28:44;;;;;;;3.77;3.47;;;;;;;;;;5000732;28;21029;-55
2023/01/02 10:31:22;;;;;;;3.90;3.60;;;;;;;;;;5002158;28;20213;-55
2023/01/02 10:33:59;;;;;;;3.60;3.30;;;;;;;;;;4979901;28;20542;-54
2023/01/02 10:36:25;;;;;;;6.87;4.13;;;;;;;;;;5006318;28;20200;-54
2023/01/02 10:38:52;;;;;;;4.10;3.80;;;;;;;;;;5008986;28;20946;-55
2023/01/02 10:41:18;;;;;;;4.70;4.30;;;;;;;;;;4999552;28;20576;-54
2023/01/02 10:43:47;;;;;;;6.23;4.23;;;;;;;;;;5000998;28;20170;-54
2023/01/02 10:46:13;;;;;;;5.17;4.77;;;;;;;;;;4999569;28;20623;-54
2023/01/02 10:48:42;;;;;;;5.70;5.23;;;;;;;;;;4999921;28;20665;-54
2023/01/02 10:51:12;;;;;;;5.83;5.27;;;;;;;;;;4992859;28;20273;-54
2023/01/02 10:53:39;;;;;;;6.23;5.73;;;;;;;;;;4986320;28;20592;-54
2023/01/02 10:56:08;;;;;;;6.57;6.07;;;;;;;;;;4994888;28;20206;-54
2023/01/02 10:58:34;;;;;;;6.37;5.87;;;;;;;;;;5001193;28;20345;-54
2023/01/02 11:01:05;;;;;;;6.90;6.33;;;;;;;;;;4999068;28;20186;-53
2023/01/02 11:03:31;;;;;;;6.70;6.20;;;;;;;;;;5003531;28;20182;-54
2023/01/02 11:05:58;;;;;;;6.27;5.77;;;;;;;;;;5000145;28;20178;-54
2023/01/02 11:08:33;;;;;;;6.37;5.87;;;;;;;;;;4999153;28;20264;-54
2023/01/02 11:11:02;;;;;;;6.30;5.70;;;;;;;;;;4994678;28;20189;-54
2023/01/02 11:13:43;;;;;;;6.23;5.73;;;;;;;;;;4986695;28;20185;-54
2023/01/02 11:16:12;;;;;;;6.87;6.20;;;;;;;;;;5004460;28;20198;-54
2023/01/02 11:18:38;;;;;;;6.93;6.27;;;;;;;;;;5001397;28;20631;-54
2023/01/02 11:21:05;;;;;;;6.67;6.07;;;;;;;;;;5005814;28;20179;-54
2023/01/02 11:23:40;;;;;;;6.67;6.17;;;;;;;;;;5006145;28;20178;-54
2023/01/02 11:26:11;;;;;;;6.50;6.00;;;;;;;;;;5004024;28;20188;-54
2023/01/02 11:28:38;;;;;;;7.17;6.57;;;;;;;;;;4990945;28;20549;-55
2023/01/02 11:31:06;;;;;;;6.80;6.20;;;;;;;;;;5006696;28;20198;-55
2023/01/02 11:33:33;;;;;;;7.00;6.40;;;;;;;;;;4987228;28;20186;-55
2023/01/02 11:36:13;;;;;;;7.17;6.50;;;;;;;;;;5004213;28;20198;-55
2023/01/02 11:38:59;;;;;;;7.20;6.60;;;;;;;;;;5006198;28;20174;-54
2023/01/02 11:44:12;;;;;;;8.23;7.50;;;;;;;;;;5003453;28;20198;-54
2023/01/02 11:46:38;;;;;;;7.37;6.67;;;;;;;;;;5000999;28;20183;-54
2023/01/02 11:49:19;;;;;;;7.23;6.63;;;;;;;;;;5001069;28;20637;-54
2023/01/02 11:51:49;;;;;;;7.80;7.10;;;;;;;;;;5006629;28;20225;-54
2023/01/02 11:54:22;;;;;;;7.70;7.10;;;;;;;;;;5007419;28;20236;-54
2023/01/02 11:56:49;;;;;;;8.50;7.70;;;;;;;;;;5008873;28;20229;-54
2023/01/02 11:59:18;;;;;;;7.87;7.17;;;;;;;;;;5009500;28;20186;-54
2023/01/02 12:01:44;;;;;;;8.20;7.47;;;;;;;;;;5005433;28;20178;-54
2023/01/02 12:04:12;;;;;;;7.87;7.17;;;;;;;;;;4998448;28;20182;-54
2023/01/02 12:06:41;;;;;;;7.83;7.13;;;;;;;;;;5006129;28;20591;-54
2023/01/02 12:09:10;;;;;;;8.30;7.43;;;;;;;;;;5001267;28;20606;-54
2023/01/02 12:11:42;;;;;;;7.27;6.57;;;;;;;;;;4998932;28;20194;-54
2023/01/02 12:14:28;;;;;;;7.80;7.00;;;;;;;;;;4998704;28;20186;-54
2023/01/02 12:17:13;;;;;;;7.67;6.97;;;;;;;;;;4998082;28;20210;-54
2023/01/02 12:19:42;;;;;;;6.70;6.10;;;;;;;;;;5001828;28;20170;-54
2023/01/02 12:22:15;;;;;;;7.67;6.30;;;;;;;;;;4987349;28;20170;-54
2023/01/02 12:24:49;;;;;;;7.23;6.53;;;;;;;;;;4999492;28;20677;-54
2023/01/02 12:27:27;;;;;;;7.30;6.60;;;;;;;;;;5002734;28;20197;-54
2023/01/02 12:30:14;;;;;;;6.50;5.60;;;;;;;;;;5005392;28;20209;-54
2023/01/02 12:32:47;;;;;;;6.40;5.83;;;;;;;;;;5001434;28;20189;-54
2023/01/02 12:35:33;;;;;;;6.40;5.80;;;;;;;;;;5001506;28;20185;-54
2023/01/02 12:38:00;;;;;;;6.20;5.60;;;;;;;;;;5001594;28;20613;-54
2023/01/02 12:40:29;;;;;;;6.67;5.97;;;;;;;;;;5001973;28;20170;-54
2023/01/02 12:42:58;;;;;;;6.27;5.67;;;;;;;;;;5000398;28;20666;-54
2023/01/02 12:45:44;;;;;;;6.57;5.90;;;;;;;;;;4996411;28;20579;-54
2023/01/02 12:48:29;;;;;;;6.47;5.73;;;;;;;;;;4980797;28;20410;-54
2023/01/02 12:51:03;;;;;;;6.60;5.90;;;;;;;;;;5000750;28;20221;-54
2023/01/02 12:53:35;;;;;;;6.50;5.90;;;;;;;;;;4998418;28;20651;-54
2023/01/02 12:56:17;;;;;;;8.10;6.70;;;;;;;;;;4996985;28;20549;-54
2023/01/02 12:59:02;;;;;;;6.57;5.97;;;;;;;;;;4998400;28;20669;-54
2023/01/02 13:01:37;;;;;;;7.10;6.40;;;;;;;;;;4998938;28;20170;-53
2023/01/02 13:04:21;;;;;;;6.87;6.17;;;;;;;;;;4997622;28;20649;-54
2023/01/02 13:06:54;;;;;;;6.83;6.20;;;;;;;;;;4998997;28;20273;-53
2023/01/02 13:09:38;;;;;;;6.30;5.70;;;;;;;;;;5001117;28;20183;-53
2023/01/02 13:12:10;;;;;;;6.37;5.30;;;;;;;;;;4993757;28;20178;-53
2023/01/02 13:14:38;;;;;;;6.50;5.10;;;;;;;;;;5002268;28;20210;-53
2023/01/02 13:17:13;;;;;;;6.07;5.07;;;;;;;;;;5000357;28;20268;-53
2023/01/02 13:19:43;;;;;;;5.33;4.83;;;;;;;;;;5007240;28;20174;-53
2023/01/02 13:22:20;;;;;;;5.97;5.13;;;;;;;;;;5009291;28;20633;-54
2023/01/02 13:24:47;;;;;;;5.33;4.83;;;;;;;;;;5004259;28;20509;-54
2023/01/02 13:27:16;;;;;;;7.00;5.00;;;;;;;;;;4996305;28;20511;-53
2023/01/02 13:29:49;;;;;;;5.13;4.63;;;;;;;;;;5005790;28;20576;-53
2023/01/02 13:32:25;;;;;;;6.40;5.33;;;;;;;;;;5004799;28;20685;-53
2023/01/02 13:34:52;;;;;;;4.70;4.30;;;;;;;;;;5007679;28;20812;-53
2023/01/02 13:37:19;;;;;;;7.00;4.73;;;;;;;;;;5009172;28;20198;-54
2023/01/02 13:39:48;;;;;;;6.07;4.80;;;;;;;;;;5001582;28;20175;-53
2023/01/02 13:45:23;;;;;;;5.50;4.93;;;;;;;;;;5001900;28;20285;-53
2023/01/02 13:47:59;;;;;;;6.57;5.17;;;;;;;;;;5007192;28;20250;-53
2023/01/02 13:50:43;;;;;;;6.43;4.87;;;;;;;;;;4999602;28;20225;-53
2023/01/02 13:53:09;;;;;;;6.53;5.83;;;;;;;;;;4986389;28;20595;-54
2023/01/02 13:55:36;;;;;;;6.67;5.70;;;;;;;;;;5001967;28;20185;-53
2023/01/02 13:58:18;;;;;;;6.67;5.57;;;;;;;;;;5003099;28;20650;-53
2023/01/02 14:00:46;;;;;;;5.97;4.83;;;;;;;;;;4979985;28;20178;-53
2023/01/02 14:03:24;;;;;;;5.03;4.50;;;;;;;;;;4998310;28;20186;-53
2023/01/02 14:05:56;;;;;;;7.90;4.67;;;;;;;;;;4999954;28;20288;-53
2023/01/02 14:08:23;;;;;;;8.00;6.17;;;;;;;;;;4976473;28;20186;-54
2023/01/02 14:10:51;;;;;;;5.40;4.90;;;;;;;;;;5001468;28;20175;-54
2023/01/02 14:13:21;;;;;;;6.33;4.97;;;;;;;;;;4997380;28;20175;-53
2023/01/02 14:16:11;;;;;;;5.40;4.90;;;;;;;;;;4998441;28;20411;-53
2023/01/02 14:18:37;;;;;;;5.97;4.70;;;;;;;;;;4979515;28;20597;-53
2023/01/02 14:21:03;;;;;;;6.50;4.93;;;;;;;;;;4995791;28;20175;-53
2023/01/02 14:23:32;;;;;;;4.97;4.40;;;;;;;;;;4996815;28;20179;-53
2023/01/02 14:25:58;;;;;;;5.93;4.40;;;;;;;;;;5002823;28;20179;-53
2023/01/02 14:28:29;;;;;;;5.80;4.10;;;;;;;;;;4998235;28;20330;-53
2023/01/02 14:30:56;;;;;;;5.37;3.87;;;;;;;;;;5001743;28;20179;-53
2023/01/02 14:33:32;;;;;;;4.20;3.50;;;;;;;;;;4994815;28;20554;-53
2023/01/02 14:36:05;;;;;;;4.33;3.33;;;;;;;;;;4998347;28;20207;-53
2023/01/02 14:38:35;;;;;;;6.50;3.90;;;;;;;;;;4993934;28;20258;-53
2023/01/02 14:43:48;;;;;;;4.10;3.70;;;;;;;;;;4978673;28;20191;-53
2023/01/02 14:46:22;;;;;;;3.47;3.17;;;;;;;;;;4999212;28;20187;-53
2023/01/02 14:48:51;;;;;;;4.10;3.47;;;;;;;;;;5007267;28;20178;-53
2023/01/02 14:51:39;;;;;;;5.90;4.03;;;;;;;;;;5007815;28;20276;-53
2023/01/02 14:54:23;;;;;;;4.93;3.33;;;;;;;;;;4999284;28;20657;-53
2023/01/02 14:56:51;;;;;;;4.40;4.00;;;;;;;;;;5005247;28;20681;-53
2023/01/02 14:59:19;;;;;;;5.87;4.60;;;;;;;;;;5007689;28;20649;-53
2023/01/02 15:01:48;;;;;;;5.50;4.30;;;;;;;;;;4980938;28;20645;-53
2023/01/02 15:04:21;;;;;;;5.27;4.87;;;;;;;;;;4999938;28;20236;-53
2023/01/02 15:06:59;;;;;;;5.47;4.83;;;;;;;;;;5008426;28;20621;-53
2023/01/02 15:09:34;;;;;;;4.67;4.20;;;;;;;;;;5010215;28;20178;-53
2023/01/02 15:14:46;;;;;;;4.63;4.23;;;;;;;;;;5010484;28;20182;-53